sensor_id;sensor_type;location;lat;lon;timestamp;P1;durP1;ratioP1;P2;durP2;ratioP2
51312;SDS011;37397;53.226;10.400;2023-10-13T00:01:07;12.70;;;3.78;;
51312;SDS011;37397;53.226;10.400;2023-10-13T00:03:34;11.27;;;3.65;;
51312;SDS011;37397;53.226;10.400;2023-10-13T00:06:03;12.45;;;3.42;;
51312;SDS011;37397;53.226;10.400;2023-10-13T00:08:30;9.82;;;3.22;;
51312;SDS011;37397;53.226;10.400;2023-10-13T00:10:56;10.68;;;3.47;;
51312;SDS011;37397;53.226;10.400;2023-10-13T00:13:29;10.40;;;3.58;;
51312;SDS011;37397;53.226;10.400;2023-10-13T00:16:01;10.35;;;3.47;;
51312;SDS011;37397;53.226;10.400;2023-10-13T00:18:30;13.98;;;3.88;;
51312;SDS011;37397;53.226;10.400;2023-10-13T00:21:03;10.90;;;3.70;;
51312;SDS011;37397;53.226;10.400;2023-10-13T00:23:45;10.93;;;3.35;;
51312;SDS011;37397;53.226;10.400;2023-10-13T00:26:19;13.15;;;4.18;;
51312;SDS011;37397;53.226;10.400;2023-10-13T00:29:00;8.48;;;3.38;;
51312;SDS011;37397;53.226;10.400;2023-10-13T00:31:36;11.48;;;4.20;;
51312;SDS011;37397;53.226;10.400;2023-10-13T00:34:06;8.88;;;3.35;;
51312;SDS011;37397;53.226;10.400;2023-10-13T00:36:46;11.80;;;4.93;;
51312;SDS011;37397;53.226;10.400;2023-10-13T00:39:15;11.57;;;4.65;;
51312;SDS011;37397;53.226;10.400;2023-10-13T00:41:43;13.80;;;4.60;;
51312;SDS011;37397;53.226;10.400;2023-10-13T00:44:20;9.07;;;3.85;;
51312;SDS011;37397;53.226;10.400;2023-10-13T00:47:04;13.48;;;4.50;;
51312;SDS011;37397;53.226;10.400;2023-10-13T00:49:34;11.07;;;4.55;;
51312;SDS011;37397;53.226;10.400;2023-10-13T00:52:06;9.88;;;3.90;;
51312;SDS011;37397;53.226;10.400;2023-10-13T00:54:37;13.25;;;4.15;;
51312;SDS011;37397;53.226;10.400;2023-10-13T00:57:04;14.52;;;4.55;;
51312;SDS011;37397;53.226;10.400;2023-10-13T00:59:34;9.85;;;4.05;;
51312;SDS011;37397;53.226;10.400;2023-10-13T01:02:02;13.07;;;4.43;;
51312;SDS011;37397;53.226;10.400;2023-10-13T01:04:48;15.32;;;4.97;;
51312;SDS011;37397;53.226;10.400;2023-10-13T01:07:15;12.27;;;4.88;;
51312;SDS011;37397;53.226;10.400;2023-10-13T01:09:42;9.77;;;4.03;;
51312;SDS011;37397;53.226;10.400;2023-10-13T01:12:09;9.07;;;4.13;;
51312;SDS011;37397;53.226;10.400;2023-10-13T01:14:35;11.55;;;4.93;;
51312;SDS011;37397;53.226;10.400;2023-10-13T01:17:02;11.82;;;5.70;;
51312;SDS011;37397;53.226;10.400;2023-10-13T01:19:35;10.23;;;4.85;;
51312;SDS011;37397;53.226;10.400;2023-10-13T01:22:05;11.32;;;5.53;;
51312;SDS011;37397;53.226;10.400;2023-10-13T01:24:33;13.73;;;5.80;;
51312;SDS011;37397;53.226;10.400;2023-10-13T01:27:03;11.27;;;5.20;;
51312;SDS011;37397;53.226;10.400;2023-10-13T01:29:51;10.60;;;5.10;;
51312;SDS011;37397;53.226;10.400;2023-10-13T01:32:24;11.07;;;5.55;;
51312;SDS011;37397;53.226;10.400;2023-10-13T01:34:52;11.73;;;5.20;;
51312;SDS011;37397;53.226;10.400;2023-10-13T01:37:22;13.38;;;6.43;;
51312;SDS011;37397;53.226;10.400;2023-10-13T01:39:49;11.60;;;6.00;;
51312;SDS011;37397;53.226;10.400;2023-10-13T01:42:17;9.45;;;5.72;;
51312;SDS011;37397;53.226;10.400;2023-10-13T01:44:48;14.00;;;6.22;;
51312;SDS011;37397;53.226;10.400;2023-10-13T01:47:15;11.40;;;6.28;;
51312;SDS011;37397;53.226;10.400;2023-10-13T01:49:43;12.82;;;6.15;;
51312;SDS011;37397;53.226;10.400;2023-10-13T01:52:14;15.10;;;5.93;;
51312;SDS011;37397;53.226;10.400;2023-10-13T01:54:47;11.93;;;5.82;;
51312;SDS011;37397;53.226;10.400;2023-10-13T01:57:16;12.07;;;6.18;;
51312;SDS011;37397;53.226;10.400;2023-10-13T01:59:46;13.32;;;6.32;;
51312;SDS011;37397;53.226;10.400;2023-10-13T02:02:14;17.65;;;6.93;;
51312;SDS011;37397;53.226;10.400;2023-10-13T02:04:46;13.35;;;7.05;;
51312;SDS011;37397;53.226;10.400;2023-10-13T02:07:23;12.95;;;6.40;;
51312;SDS011;37397;53.226;10.400;2023-10-13T02:09:57;13.98;;;7.25;;
51312;SDS011;37397;53.226;10.400;2023-10-13T02:12:24;14.95;;;7.18;;
51312;SDS011;37397;53.226;10.400;2023-10-13T02:15:03;13.00;;;7.13;;
51312;SDS011;37397;53.226;10.400;2023-10-13T02:17:31;14.48;;;7.80;;
51312;SDS011;37397;53.226;10.400;2023-10-13T02:20:07;13.18;;;7.30;;
51312;SDS011;37397;53.226;10.400;2023-10-13T02:25:15;15.27;;;7.77;;
51312;SDS011;37397;53.226;10.400;2023-10-13T02:27:51;14.68;;;6.95;;
51312;SDS011;37397;53.226;10.400;2023-10-13T02:30:24;13.00;;;7.10;;
51312;SDS011;37397;53.226;10.400;2023-10-13T02:32:51;12.73;;;7.32;;
51312;SDS011;37397;53.226;10.400;2023-10-13T02:35:19;12.07;;;7.03;;
51312;SDS011;37397;53.226;10.400;2023-10-13T02:37:56;11.60;;;6.75;;
51312;SDS011;37397;53.226;10.400;2023-10-13T02:40:24;12.82;;;7.72;;
51312;SDS011;37397;53.226;10.400;2023-10-13T02:42:50;13.55;;;7.60;;
51312;SDS011;37397;53.226;10.400;2023-10-13T02:45:17;13.05;;;7.50;;
51312;SDS011;37397;53.226;10.400;2023-10-13T02:47:52;12.55;;;7.85;;
51312;SDS011;37397;53.226;10.400;2023-10-13T02:53:04;15.95;;;7.93;;
51312;SDS011;37397;53.226;10.400;2023-10-13T02:55:48;13.30;;;7.35;;
51312;SDS011;37397;53.226;10.400;2023-10-13T02:58:19;13.40;;;7.53;;
51312;SDS011;37397;53.226;10.400;2023-10-13T03:00:47;13.27;;;6.97;;
51312;SDS011;37397;53.226;10.400;2023-10-13T03:03:13;12.57;;;7.75;;
51312;SDS011;37397;53.226;10.400;2023-10-13T03:05:45;13.85;;;7.32;;
51312;SDS011;37397;53.226;10.400;2023-10-13T03:08:12;10.73;;;6.93;;
51312;SDS011;37397;53.226;10.400;2023-10-13T03:10:44;12.30;;;7.03;;
51312;SDS011;37397;53.226;10.400;2023-10-13T03:13:16;10.40;;;6.72;;
51312;SDS011;37397;53.226;10.400;2023-10-13T03:15:44;13.82;;;7.68;;
51312;SDS011;37397;53.226;10.400;2023-10-13T03:18:14;11.73;;;6.93;;
51312;SDS011;37397;53.226;10.400;2023-10-13T03:20:45;14.00;;;7.70;;
51312;SDS011;37397;53.226;10.400;2023-10-13T03:23:16;13.85;;;7.85;;
51312;SDS011;37397;53.226;10.400;2023-10-13T03:25:43;14.75;;;7.13;;
51312;SDS011;37397;53.226;10.400;2023-10-13T03:28:09;11.00;;;7.20;;
51312;SDS011;37397;53.226;10.400;2023-10-13T03:30:42;13.67;;;7.93;;
51312;SDS011;37397;53.226;10.400;2023-10-13T03:33:09;11.55;;;6.75;;
51312;SDS011;37397;53.226;10.400;2023-10-13T03:35:40;14.45;;;8.88;;
51312;SDS011;37397;53.226;10.400;2023-10-13T03:38:18;13.98;;;7.57;;
51312;SDS011;37397;53.226;10.400;2023-10-13T03:40:46;14.13;;;8.52;;
51312;SDS011;37397;53.226;10.400;2023-10-13T03:43:22;16.27;;;9.15;;
51312;SDS011;37397;53.226;10.400;2023-10-13T03:45:56;14.07;;;8.67;;
51312;SDS011;37397;53.226;10.400;2023-10-13T03:48:34;14.20;;;8.15;;
51312;SDS011;37397;53.226;10.400;2023-10-13T03:51:18;16.83;;;9.07;;
51312;SDS011;37397;53.226;10.400;2023-10-13T03:53:44;15.48;;;9.93;;
51312;SDS011;37397;53.226;10.400;2023-10-13T03:56:25;18.48;;;10.20;;
51312;SDS011;37397;53.226;10.400;2023-10-13T03:58:58;15.02;;;9.60;;
51312;SDS011;37397;53.226;10.400;2023-10-13T04:04:18;16.70;;;9.95;;
51312;SDS011;37397;53.226;10.400;2023-10-13T04:07:03;16.60;;;10.10;;
51312;SDS011;37397;53.226;10.400;2023-10-13T04:09:33;18.88;;;11.60;;
51312;SDS011;37397;53.226;10.400;2023-10-13T04:12:14;18.55;;;11.10;;
51312;SDS011;37397;53.226;10.400;2023-10-13T04:14:46;17.10;;;11.65;;
51312;SDS011;37397;53.226;10.400;2023-10-13T04:17:41;22.50;;;13.35;;
51312;SDS011;37397;53.226;10.400;2023-10-13T04:20:12;19.58;;;12.82;;
51312;SDS011;37397;53.226;10.400;2023-10-13T04:22:39;17.08;;;11.90;;
51312;SDS011;37397;53.226;10.400;2023-10-13T04:25:25;19.02;;;12.35;;
51312;SDS011;37397;53.226;10.400;2023-10-13T04:28:10;17.05;;;11.00;;
51312;SDS011;37397;53.226;10.400;2023-10-13T04:30:46;17.27;;;11.50;;
51312;SDS011;37397;53.226;10.400;2023-10-13T04:33:28;17.98;;;12.75;;
51312;SDS011;37397;53.226;10.400;2023-10-13T04:36:16;20.30;;;13.38;;
51312;SDS011;37397;53.226;10.400;2023-10-13T04:38:49;20.92;;;14.18;;
51312;SDS011;37397;53.226;10.400;2023-10-13T04:41:36;19.98;;;13.18;;
51312;SDS011;37397;53.226;10.400;2023-10-13T04:44:16;22.98;;;14.30;;
51312;SDS011;37397;53.226;10.400;2023-10-13T04:47:01;26.50;;;16.42;;
51312;SDS011;37397;53.226;10.400;2023-10-13T04:49:30;21.80;;;14.85;;
51312;SDS011;37397;53.226;10.400;2023-10-13T04:52:01;24.38;;;16.30;;
51312;SDS011;37397;53.226;10.400;2023-10-13T04:54:39;26.50;;;16.63;;
51312;SDS011;37397;53.226;10.400;2023-10-13T04:57:15;22.45;;;15.93;;
51312;SDS011;37397;53.226;10.400;2023-10-13T04:59:46;25.30;;;17.08;;
51312;SDS011;37397;53.226;10.400;2023-10-13T05:02:32;23.95;;;17.55;;
51312;SDS011;37397;53.226;10.400;2023-10-13T05:05:07;24.40;;;16.80;;
51312;SDS011;37397;53.226;10.400;2023-10-13T05:07:45;29.33;;;19.13;;
51312;SDS011;37397;53.226;10.400;2023-10-13T05:10:30;27.65;;;19.10;;
51312;SDS011;37397;53.226;10.400;2023-10-13T05:13:16;26.38;;;18.98;;
51312;SDS011;37397;53.226;10.400;2023-10-13T05:16:01;29.00;;;20.60;;
51312;SDS011;37397;53.226;10.400;2023-10-13T05:18:47;28.90;;;19.80;;
51312;SDS011;37397;53.226;10.400;2023-10-13T05:21:32;29.30;;;22.10;;
51312;SDS011;37397;53.226;10.400;2023-10-13T05:24:17;28.38;;;19.95;;
51312;SDS011;37397;53.226;10.400;2023-10-13T05:27:02;28.63;;;20.60;;
51312;SDS011;37397;53.226;10.400;2023-10-13T05:29:47;25.27;;;20.08;;
51312;SDS011;37397;53.226;10.400;2023-10-13T05:32:33;30.83;;;20.65;;
51312;SDS011;37397;53.226;10.400;2023-10-13T05:35:22;29.90;;;20.98;;
51312;SDS011;37397;53.226;10.400;2023-10-13T05:38:07;31.17;;;22.15;;
51312;SDS011;37397;53.226;10.400;2023-10-13T05:40:53;31.08;;;22.63;;
51312;SDS011;37397;53.226;10.400;2023-10-13T05:43:46;29.05;;;22.13;;
51312;SDS011;37397;53.226;10.400;2023-10-13T05:46:32;30.63;;;22.52;;
51312;SDS011;37397;53.226;10.400;2023-10-13T05:49:15;32.85;;;23.98;;
51312;SDS011;37397;53.226;10.400;2023-10-13T05:51:42;30.42;;;22.30;;
51312;SDS011;37397;53.226;10.400;2023-10-13T05:54:13;32.50;;;23.02;;
51312;SDS011;37397;53.226;10.400;2023-10-13T05:56:41;31.75;;;24.38;;
51312;SDS011;37397;53.226;10.400;2023-10-13T05:59:27;31.10;;;23.08;;
51312;SDS011;37397;53.226;10.400;2023-10-13T06:02:14;29.75;;;23.20;;
51312;SDS011;37397;53.226;10.400;2023-10-13T06:05:04;30.50;;;23.42;;
51312;SDS011;37397;53.226;10.400;2023-10-13T06:11:00;28.35;;;21.98;;
51312;SDS011;37397;53.226;10.400;2023-10-13T06:13:46;27.38;;;21.67;;
51312;SDS011;37397;53.226;10.400;2023-10-13T06:16:31;28.13;;;22.17;;
51312;SDS011;37397;53.226;10.400;2023-10-13T06:19:16;29.65;;;21.85;;
51312;SDS011;37397;53.226;10.400;2023-10-13T06:22:02;26.30;;;22.02;;
51312;SDS011;37397;53.226;10.400;2023-10-13T06:24:47;29.13;;;20.90;;
51312;SDS011;37397;53.226;10.400;2023-10-13T06:27:32;28.10;;;20.75;;
51312;SDS011;37397;53.226;10.400;2023-10-13T06:30:17;31.50;;;21.52;;
51312;SDS011;37397;53.226;10.400;2023-10-13T06:32:44;29.00;;;21.65;;
51312;SDS011;37397;53.226;10.400;2023-10-13T06:35:12;31.58;;;21.67;;
51312;SDS011;37397;53.226;10.400;2023-10-13T06:37:45;30.30;;;21.25;;
51312;SDS011;37397;53.226;10.400;2023-10-13T06:40:12;27.20;;;21.60;;
51312;SDS011;37397;53.226;10.400;2023-10-13T06:42:52;30.80;;;22.27;;
51312;SDS011;37397;53.226;10.400;2023-10-13T06:45:20;28.42;;;21.38;;
51312;SDS011;37397;53.226;10.400;2023-10-13T06:47:48;28.50;;;21.98;;
51312;SDS011;37397;53.226;10.400;2023-10-13T06:50:19;28.40;;;20.85;;
51312;SDS011;37397;53.226;10.400;2023-10-13T06:52:50;27.50;;;19.80;;
51312;SDS011;37397;53.226;10.400;2023-10-13T06:55:20;25.98;;;19.50;;
51312;SDS011;37397;53.226;10.400;2023-10-13T06:57:54;24.42;;;18.83;;
51312;SDS011;37397;53.226;10.400;2023-10-13T07:00:26;25.35;;;19.17;;
51312;SDS011;37397;53.226;10.400;2023-10-13T07:02:59;25.80;;;19.38;;
51312;SDS011;37397;53.226;10.400;2023-10-13T07:05:37;23.33;;;17.92;;
51312;SDS011;37397;53.226;10.400;2023-10-13T07:08:05;25.73;;;18.38;;
51312;SDS011;37397;53.226;10.400;2023-10-13T07:10:32;21.52;;;16.83;;
51312;SDS011;37397;53.226;10.400;2023-10-13T07:13:11;20.27;;;16.65;;
51312;SDS011;37397;53.226;10.400;2023-10-13T07:15:40;21.73;;;16.13;;
51312;SDS011;37397;53.226;10.400;2023-10-13T07:18:14;20.95;;;16.58;;
51312;SDS011;37397;53.226;10.400;2023-10-13T07:20:44;23.85;;;16.65;;
51312;SDS011;37397;53.226;10.400;2023-10-13T07:23:13;23.23;;;15.40;;
51312;SDS011;37397;53.226;10.400;2023-10-13T07:25:53;19.35;;;14.43;;
51312;SDS011;37397;53.226;10.400;2023-10-13T07:28:22;20.02;;;15.27;;
51312;SDS011;37397;53.226;10.400;2023-10-13T07:30:48;20.83;;;15.52;;
51312;SDS011;37397;53.226;10.400;2023-10-13T07:33:21;19.10;;;14.60;;
51312;SDS011;37397;53.226;10.400;2023-10-13T07:35:48;20.10;;;15.32;;
51312;SDS011;37397;53.226;10.400;2023-10-13T07:38:26;19.88;;;14.35;;
51312;SDS011;37397;53.226;10.400;2023-10-13T07:40:57;18.63;;;14.93;;
51312;SDS011;37397;53.226;10.400;2023-10-13T07:43:33;17.60;;;13.50;;
51312;SDS011;37397;53.226;10.400;2023-10-13T07:46:00;18.08;;;14.27;;
51312;SDS011;37397;53.226;10.400;2023-10-13T07:48:33;19.60;;;14.07;;
51312;SDS011;37397;53.226;10.400;2023-10-13T07:51:03;16.25;;;12.95;;
51312;SDS011;37397;53.226;10.400;2023-10-13T07:53:32;17.90;;;13.35;;
51312;SDS011;37397;53.226;10.400;2023-10-13T07:56:08;19.60;;;12.90;;
51312;SDS011;37397;53.226;10.400;2023-10-13T07:58:38;14.40;;;12.18;;
51312;SDS011;37397;53.226;10.400;2023-10-13T08:01:13;16.85;;;13.00;;
51312;SDS011;37397;53.226;10.400;2023-10-13T08:03:44;17.45;;;13.18;;
51312;SDS011;37397;53.226;10.400;2023-10-13T08:08:39;14.93;;;11.88;;
51312;SDS011;37397;53.226;10.400;2023-10-13T08:11:06;18.80;;;12.32;;
51312;SDS011;37397;53.226;10.400;2023-10-13T08:16:38;18.50;;;11.45;;
51312;SDS011;37397;53.226;10.400;2023-10-13T08:19:22;13.75;;;11.32;;
51312;SDS011;37397;53.226;10.400;2023-10-13T08:22:06;14.07;;;10.30;;
51312;SDS011;37397;53.226;10.400;2023-10-13T08:24:46;14.43;;;11.25;;
51312;SDS011;37397;53.226;10.400;2023-10-13T08:27:18;13.85;;;10.40;;
51312;SDS011;37397;53.226;10.400;2023-10-13T08:30:02;14.05;;;10.63;;
51312;SDS011;37397;53.226;10.400;2023-10-13T08:32:48;15.02;;;10.43;;
51312;SDS011;37397;53.226;10.400;2023-10-13T08:35:21;11.60;;;8.85;;
51312;SDS011;37397;53.226;10.400;2023-10-13T08:38:01;13.45;;;9.07;;
51312;SDS011;37397;53.226;10.400;2023-10-13T08:40:48;13.23;;;8.52;;
51312;SDS011;37397;53.226;10.400;2023-10-13T08:43:23;9.65;;;7.50;;
51312;SDS011;37397;53.226;10.400;2023-10-13T08:45:50;10.80;;;6.90;;
51312;SDS011;37397;53.226;10.400;2023-10-13T08:48:18;11.23;;;7.28;;
51312;SDS011;37397;53.226;10.400;2023-10-13T08:50:52;11.27;;;6.72;;
51312;SDS011;37397;53.226;10.400;2023-10-13T08:53:25;10.02;;;6.68;;
51312;SDS011;37397;53.226;10.400;2023-10-13T08:58:45;8.75;;;6.15;;
51312;SDS011;37397;53.226;10.400;2023-10-13T09:01:34;8.38;;;5.97;;
51312;SDS011;37397;53.226;10.400;2023-10-13T09:04:16;9.52;;;5.97;;
51312;SDS011;37397;53.226;10.400;2023-10-13T09:06:57;9.75;;;6.13;;
51312;SDS011;37397;53.226;10.400;2023-10-13T09:14:40;6.75;;;5.03;;
51312;SDS011;37397;53.226;10.400;2023-10-13T09:17:11;10.20;;;5.45;;
51312;SDS011;37397;53.226;10.400;2023-10-13T09:19:59;9.30;;;4.85;;
51312;SDS011;37397;53.226;10.400;2023-10-13T09:22:46;7.00;;;4.75;;
51312;SDS011;37397;53.226;10.400;2023-10-13T09:25:32;6.47;;;4.18;;
51312;SDS011;37397;53.226;10.400;2023-10-13T09:28:11;8.80;;;4.05;;
51312;SDS011;37397;53.226;10.400;2023-10-13T09:30:45;8.70;;;4.05;;
51312;SDS011;37397;53.226;10.400;2023-10-13T09:33:12;7.05;;;4.40;;
51312;SDS011;37397;53.226;10.400;2023-10-13T09:35:45;8.05;;;4.78;;
51312;SDS011;37397;53.226;10.400;2023-10-13T09:38:17;10.23;;;4.95;;
51312;SDS011;37397;53.226;10.400;2023-10-13T09:40:45;8.07;;;4.68;;
51312;SDS011;37397;53.226;10.400;2023-10-13T09:43:17;9.55;;;4.40;;
51312;SDS011;37397;53.226;10.400;2023-10-13T09:45:47;6.53;;;4.30;;
51312;SDS011;37397;53.226;10.400;2023-10-13T09:48:33;8.73;;;4.85;;
51312;SDS011;37397;53.226;10.400;2023-10-13T09:51:03;10.20;;;5.00;;
51312;SDS011;37397;53.226;10.400;2023-10-13T09:53:35;8.98;;;4.70;;
51312;SDS011;37397;53.226;10.400;2023-10-13T09:56:25;8.75;;;4.22;;
51312;SDS011;37397;53.226;10.400;2023-10-13T09:58:58;8.88;;;4.70;;
51312;SDS011;37397;53.226;10.400;2023-10-13T10:01:37;9.00;;;4.85;;
51312;SDS011;37397;53.226;10.400;2023-10-13T10:04:17;9.45;;;4.78;;
51312;SDS011;37397;53.226;10.400;2023-10-13T10:06:52;8.60;;;4.82;;
51312;SDS011;37397;53.226;10.400;2023-10-13T10:09:19;9.48;;;4.95;;
51312;SDS011;37397;53.226;10.400;2023-10-13T10:17:40;7.30;;;4.63;;
51312;SDS011;37397;53.226;10.400;2023-10-13T10:20:09;10.15;;;5.32;;
51312;SDS011;37397;53.226;10.400;2023-10-13T10:22:59;8.88;;;4.93;;
51312;SDS011;37397;53.226;10.400;2023-10-13T10:25:30;10.60;;;4.78;;
51312;SDS011;37397;53.226;10.400;2023-10-13T10:28:02;11.57;;;4.97;;
51312;SDS011;37397;53.226;10.400;2023-10-13T10:30:36;7.93;;;4.72;;
51312;SDS011;37397;53.226;10.400;2023-10-13T10:33:08;12.68;;;6.00;;
51312;SDS011;37397;53.226;10.400;2023-10-13T10:35:40;10.77;;;6.05;;
51312;SDS011;37397;53.226;10.400;2023-10-13T10:38:11;10.27;;;5.43;;
51312;SDS011;37397;53.226;10.400;2023-10-13T10:40:55;11.35;;;5.53;;
51312;SDS011;37397;53.226;10.400;2023-10-13T10:43:28;10.23;;;5.38;;
51312;SDS011;37397;53.226;10.400;2023-10-13T10:46:12;9.03;;;5.70;;
51312;SDS011;37397;53.226;10.400;2023-10-13T10:48:43;11.27;;;6.15;;
51312;SDS011;37397;53.226;10.400;2023-10-13T10:51:10;11.13;;;5.38;;
51312;SDS011;37397;53.226;10.400;2023-10-13T10:53:47;12.30;;;5.07;;
51312;SDS011;37397;53.226;10.400;2023-10-13T10:56:23;12.45;;;5.50;;
51312;SDS011;37397;53.226;10.400;2023-10-13T10:58:58;10.88;;;5.75;;
51312;SDS011;37397;53.226;10.400;2023-10-13T11:01:27;10.45;;;5.40;;
51312;SDS011;37397;53.226;10.400;2023-10-13T11:04:05;14.90;;;5.72;;
51312;SDS011;37397;53.226;10.400;2023-10-13T11:06:52;11.60;;;5.80;;
51312;SDS011;37397;53.226;10.400;2023-10-13T11:14:41;11.27;;;5.15;;
51312;SDS011;37397;53.226;10.400;2023-10-13T11:17:18;14.20;;;5.38;;
51312;SDS011;37397;53.226;10.400;2023-10-13T11:20:11;11.63;;;5.50;;
51312;SDS011;37397;53.226;10.400;2023-10-13T11:22:46;11.98;;;6.03;;
51312;SDS011;37397;53.226;10.400;2023-10-13T11:25:20;9.93;;;5.47;;
51312;SDS011;37397;53.226;10.400;2023-10-13T11:28:14;11.57;;;5.82;;
51312;SDS011;37397;53.226;10.400;2023-10-13T11:30:54;10.98;;;5.75;;
51312;SDS011;37397;53.226;10.400;2023-10-13T11:33:26;11.45;;;5.22;;
51312;SDS011;37397;53.226;10.400;2023-10-13T11:35:57;10.50;;;5.00;;
51312;SDS011;37397;53.226;10.400;2023-10-13T11:38:33;12.38;;;5.30;;
51312;SDS011;37397;53.226;10.400;2023-10-13T11:41:15;11.95;;;5.63;;
51312;SDS011;37397;53.226;10.400;2023-10-13T11:43:46;9.30;;;5.40;;
51312;SDS011;37397;53.226;10.400;2023-10-13T11:46:25;11.13;;;5.30;;
51312;SDS011;37397;53.226;10.400;2023-10-13T11:49:02;10.98;;;5.13;;
51312;SDS011;37397;53.226;10.400;2023-10-13T11:51:42;14.13;;;5.45;;
51312;SDS011;37397;53.226;10.400;2023-10-13T11:54:16;12.93;;;5.55;;
51312;SDS011;37397;53.226;10.400;2023-10-13T11:56:48;13.90;;;5.82;;
51312;SDS011;37397;53.226;10.400;2023-10-13T11:59:16;12.88;;;5.97;;
51312;SDS011;37397;53.226;10.400;2023-10-13T12:01:50;12.40;;;6.07;;
51312;SDS011;37397;53.226;10.400;2023-10-13T12:04:36;16.42;;;6.60;;
51312;SDS011;37397;53.226;10.400;2023-10-13T12:07:21;10.30;;;5.65;;
51312;SDS011;37397;53.226;10.400;2023-10-13T12:10:11;10.45;;;5.18;;
51312;SDS011;37397;53.226;10.400;2023-10-13T12:12:56;9.93;;;5.45;;
51312;SDS011;37397;53.226;10.400;2023-10-13T12:15:24;11.93;;;6.00;;
51312;SDS011;37397;53.226;10.400;2023-10-13T12:17:52;13.48;;;6.05;;
51312;SDS011;37397;53.226;10.400;2023-10-13T12:20:19;11.15;;;5.75;;
51312;SDS011;37397;53.226;10.400;2023-10-13T12:22:59;12.88;;;5.40;;
51312;SDS011;37397;53.226;10.400;2023-10-13T12:25:38;12.25;;;5.85;;
51312;SDS011;37397;53.226;10.400;2023-10-13T12:28:22;13.35;;;5.78;;
51312;SDS011;37397;53.226;10.400;2023-10-13T12:30:49;16.15;;;6.18;;
51312;SDS011;37397;53.226;10.400;2023-10-13T12:33:20;15.10;;;6.20;;
51312;SDS011;37397;53.226;10.400;2023-10-13T12:36:00;12.10;;;6.17;;
51312;SDS011;37397;53.226;10.400;2023-10-13T12:38:40;11.10;;;5.88;;
51312;SDS011;37397;53.226;10.400;2023-10-13T12:41:13;11.98;;;5.32;;
51312;SDS011;37397;53.226;10.400;2023-10-13T12:44:02;13.43;;;6.05;;
51312;SDS011;37397;53.226;10.400;2023-10-13T12:46:50;13.23;;;5.97;;
51312;SDS011;37397;53.226;10.400;2023-10-13T12:49:36;10.88;;;6.05;;
51312;SDS011;37397;53.226;10.400;2023-10-13T12:52:10;13.48;;;6.15;;
51312;SDS011;37397;53.226;10.400;2023-10-13T12:54:43;10.87;;;5.67;;
51312;SDS011;37397;53.226;10.400;2023-10-13T12:57:14;12.48;;;5.97;;
51312;SDS011;37397;53.226;10.400;2023-10-13T12:59:42;12.57;;;6.07;;
51312;SDS011;37397;53.226;10.400;2023-10-13T13:02:09;14.13;;;6.55;;
51312;SDS011;37397;53.226;10.400;2023-10-13T13:04:41;12.23;;;6.45;;
51312;SDS011;37397;53.226;10.400;2023-10-13T13:07:10;16.77;;;6.03;;
51312;SDS011;37397;53.226;10.400;2023-10-13T13:09:40;12.90;;;6.00;;
51312;SDS011;37397;53.226;10.400;2023-10-13T13:12:07;15.40;;;6.72;;
51312;SDS011;37397;53.226;10.400;2023-10-13T13:14:34;13.18;;;6.75;;
51312;SDS011;37397;53.226;10.400;2023-10-13T13:17:00;12.57;;;6.20;;
51312;SDS011;37397;53.226;10.400;2023-10-13T13:19:32;13.75;;;6.55;;
51312;SDS011;37397;53.226;10.400;2023-10-13T13:22:02;15.05;;;6.30;;
51312;SDS011;37397;53.226;10.400;2023-10-13T13:24:30;15.57;;;6.75;;
51312;SDS011;37397;53.226;10.400;2023-10-13T13:26:56;16.40;;;6.45;;
51312;SDS011;37397;53.226;10.400;2023-10-13T13:29:29;12.75;;;7.07;;
51312;SDS011;37397;53.226;10.400;2023-10-13T13:31:56;12.90;;;6.15;;
51312;SDS011;37397;53.226;10.400;2023-10-13T13:34:22;13.80;;;6.43;;
51312;SDS011;37397;53.226;10.400;2023-10-13T13:36:49;19.10;;;7.53;;
51312;SDS011;37397;53.226;10.400;2023-10-13T13:39:19;15.25;;;6.57;;
51312;SDS011;37397;53.226;10.400;2023-10-13T13:41:55;15.70;;;6.90;;
51312;SDS011;37397;53.226;10.400;2023-10-13T13:44:24;14.20;;;7.05;;
51312;SDS011;37397;53.226;10.400;2023-10-13T13:46:56;13.48;;;6.63;;
51312;SDS011;37397;53.226;10.400;2023-10-13T13:49:23;16.27;;;6.75;;
51312;SDS011;37397;53.226;10.400;2023-10-13T13:51:59;12.57;;;6.95;;
51312;SDS011;37397;53.226;10.400;2023-10-13T13:54:31;15.27;;;7.07;;
51312;SDS011;37397;53.226;10.400;2023-10-13T13:56:57;15.32;;;7.65;;
51312;SDS011;37397;53.226;10.400;2023-10-13T13:59:24;14.45;;;7.13;;
51312;SDS011;37397;53.226;10.400;2023-10-13T14:01:50;17.15;;;7.60;;
51312;SDS011;37397;53.226;10.400;2023-10-13T14:04:19;18.08;;;7.38;;
51312;SDS011;37397;53.226;10.400;2023-10-13T14:06:46;16.73;;;7.15;;
51312;SDS011;37397;53.226;10.400;2023-10-13T14:09:12;14.25;;;7.65;;
51312;SDS011;37397;53.226;10.400;2023-10-13T14:11:43;13.35;;;6.65;;
51312;SDS011;37397;53.226;10.400;2023-10-13T14:14:42;12.80;;;7.32;;
51312;SDS011;37397;53.226;10.400;2023-10-13T14:17:16;14.25;;;7.25;;
51312;SDS011;37397;53.226;10.400;2023-10-13T14:19:42;17.60;;;7.55;;
51312;SDS011;37397;53.226;10.400;2023-10-13T14:22:12;15.40;;;6.55;;
51312;SDS011;37397;53.226;10.400;2023-10-13T14:24:39;13.07;;;6.82;;
51312;SDS011;37397;53.226;10.400;2023-10-13T14:27:10;14.27;;;7.38;;
51312;SDS011;37397;53.226;10.400;2023-10-13T14:29:43;17.60;;;7.22;;
51312;SDS011;37397;53.226;10.400;2023-10-13T14:32:11;17.17;;;7.15;;
51312;SDS011;37397;53.226;10.400;2023-10-13T14:34:39;17.45;;;7.22;;
51312;SDS011;37397;53.226;10.400;2023-10-13T14:37:10;13.77;;;6.43;;
51312;SDS011;37397;53.226;10.400;2023-10-13T14:39:47;16.70;;;7.70;;
51312;SDS011;37397;53.226;10.400;2023-10-13T14:42:13;16.73;;;7.20;;
51312;SDS011;37397;53.226;10.400;2023-10-13T14:44:43;17.98;;;7.53;;
51312;SDS011;37397;53.226;10.400;2023-10-13T14:47:09;16.17;;;7.13;;
51312;SDS011;37397;53.226;10.400;2023-10-13T14:49:38;15.60;;;7.53;;
51312;SDS011;37397;53.226;10.400;2023-10-13T14:52:04;16.75;;;7.45;;
51312;SDS011;37397;53.226;10.400;2023-10-13T14:54:31;15.75;;;7.90;;
51312;SDS011;37397;53.226;10.400;2023-10-13T14:57:01;18.05;;;7.68;;
51312;SDS011;37397;53.226;10.400;2023-10-13T14:59:28;14.30;;;6.35;;
51312;SDS011;37397;53.226;10.400;2023-10-13T15:02:05;15.43;;;7.60;;
51312;SDS011;37397;53.226;10.400;2023-10-13T15:04:33;18.00;;;7.32;;
51312;SDS011;37397;53.226;10.400;2023-10-13T15:07:01;19.70;;;7.22;;
51312;SDS011;37397;53.226;10.400;2023-10-13T15:09:30;22.00;;;7.63;;
51312;SDS011;37397;53.226;10.400;2023-10-13T15:11:57;16.73;;;7.43;;
51312;SDS011;37397;53.226;10.400;2023-10-13T15:14:23;18.05;;;7.53;;
51312;SDS011;37397;53.226;10.400;2023-10-13T15:16:50;16.00;;;8.10;;
51312;SDS011;37397;53.226;10.400;2023-10-13T15:19:19;17.23;;;7.38;;
51312;SDS011;37397;53.226;10.400;2023-10-13T15:21:45;19.02;;;8.07;;
51312;SDS011;37397;53.226;10.400;2023-10-13T15:24:19;16.70;;;7.97;;
51312;SDS011;37397;53.226;10.400;2023-10-13T15:26:56;17.85;;;6.97;;
51312;SDS011;37397;53.226;10.400;2023-10-13T15:29:29;18.60;;;6.90;;
51312;SDS011;37397;53.226;10.400;2023-10-13T15:32:03;17.25;;;7.55;;
51312;SDS011;37397;53.226;10.400;2023-10-13T15:34:31;18.85;;;7.85;;